Last 7 Days

Middletown-South

Hourly Data | America/Los_Angeles
as of 1/29/23 12:08 PM PST
Date & Time Temp (°F) RH (%) Dew Pt (°F) Wet Bulb (°F) Wind Dir (°) Wind Spd (mph) Wind Gust (mph) WindChill (°F) Leaf Wet (mins) BatVolt (V) Latest Rain (In) Daily Rain (In) Daily Min Temp (°F) Daily Max Temp (°F) Daily Max Wind (mph) Daily Leaf Wet Hrs (hrs)
1/29/23 - 1200 43.2 58 29.4 37.6 NE | 38 6.4 17.3 39.4 0.0 13.6 0.00 0.00 27.8 43.9 18.6 10.0
1/29/23 - 1100 41.8 67 31.5 37.6 NNE | 21 5.6 18.6 38.1 3.0 13.1 0.00 0.00 27.8 42.6 18.6 10.0
1/29/23 - 1000 39.0 84 34.5 37.2 SE | 142 1.9 7.7 - 60.0 12.7 0.00 0.00 27.8 41.3 7.9 10.0
1/29/23 - 0900 34.0 99 33.7 33.9 SSE | 165 2.0 7.9 - 60.0 12.6 0.00 0.00 27.8 35.9 7.9 9.0
1/29/23 - 0800 31.4 100 31.3 31.3 SSE | 167 1.5 5.0 - 60.0 12.6 0.00 0.00 27.8 33.9 6.7 8.0
1/29/23 - 0700 29.2 98 28.8 28.9 S | 176 1.4 4.5 - 60.0 12.6 0.00 0.00 27.8 33.9 6.7 7.0
1/29/23 - 0600 29.8 98 29.3 29.5 SSW | 192 1.5 5.0 - 60.0 12.6 0.00 0.00 28.2 33.9 6.7 6.0
1/29/23 - 0500 29.4 98 28.9 29.1 SSW | 201 2.3 6.7 - 60.0 12.6 0.00 0.00 28.3 33.9 6.7 5.0
1/29/23 - 0400 29.7 97 28.9 29.3 S | 189 1.1 3.0 - 60.0 12.6 0.00 0.00 28.3 33.9 3.8 4.0
1/29/23 - 0300 30.4 97 29.6 30.0 SSE | 155 1.0 2.7 - 60.0 12.6 0.00 0.00 29.9 33.9 3.8 3.0
1/29/23 - 0200 31.2 96 30.3 30.8 S | 172 1.1 2.6 - 60.0 12.7 0.00 0.00 30.5 33.9 3.8 2.0
1/29/23 - 0100 32.7 96 31.6 32.2 SSE | 166 1.2 3.8 - 60.0 12.7 0.00 0.00 31.2 33.9 3.8 1.0
1/29/23 - 0000 34.0 95 32.8 33.5 SSW | 200 1.0 3.9 - 60.0 12.7 0.00 0.00 30.2 58.8 15.4 12.5
1/28/23 - 2300 35.8 94 34.0 35.1 SSW | 201 1.4 3.9 - 60.0 12.7 0.00 0.00 30.2 58.8 15.4 11.5
1/28/23 - 2200 37.9 89 35.0 36.8 SSW | 202 1.5 3.8 - 31.9 12.7 0.00 0.00 30.2 58.8 15.4 10.5
1/28/23 - 2100 42.0 81 36.8 39.8 S | 178 1.4 4.8 - 0.0 12.8 0.00 0.00 30.2 58.8 15.4 10.0
1/28/23 - 2000 42.8 78 36.4 40.1 SSE | 154 1.9 4.7 - 0.0 12.8 0.00 0.00 30.2 58.8 15.4 10.0
1/28/23 - 1900 42.3 78 35.8 39.6 S | 191 2.1 4.9 - 0.0 12.8 0.00 0.00 30.2 58.8 15.4 10.0
1/28/23 - 1800 47.6 64 36.0 42.4 SSW | 200 2.1 4.8 - 0.0 13.0 0.00 0.00 30.2 58.8 15.4 10.0
1/28/23 - 1700 54.8 47 35.1 45.5 SW | 231 4.4 12.7 - 0.0 13.1 0.00 0.00 30.2 58.8 15.4 10.0
1/28/23 - 1600 57.0 41 33.3 45.8 SW | 234 6.7 15.3 - 0.0 13.4 0.00 0.00 30.2 58.8 15.4 10.0
1/28/23 - 1500 57.7 39 32.8 45.9 SW | 236 6.0 15.4 - 0.0 13.3 0.00 0.00 30.2 58.8 15.4 10.0
1/28/23 - 1400 57.0 40 32.7 45.6 WSW | 256 6.9 15.0 - 0.0 13.3 0.00 0.00 30.2 58.8 15.0 10.0
1/28/23 - 1300 57.0 39 32.6 45.6 WSW | 251 6.8 13.9 - 0.0 13.3 0.00 0.00 30.2 58.8 13.9 10.0
1/28/23 - 1200 56.5 41 32.9 45.4 NNE | 19 3.0 11.4 - 0.0 13.4 0.00 0.00 30.2 58.8 11.4 10.0
1/28/23 - 1100 51.4 49 32.8 43.1 N | 356 2.7 6.4 - 0.0 13.5 0.00 0.00 30.2 54.0 6.4 10.0
1/28/23 - 1000 46.4 60 33.2 40.7 NNE | 24 0.8 3.0 - 57.8 13.5 0.00 0.00 30.2 49.6 6.0 10.0
1/28/23 - 0900 34.4 90 31.9 33.4 SSE | 157 0.3 3.9 - 60.0 13.7 0.00 0.00 30.2 40.6 6.0 9.0
1/28/23 - 0800 30.8 94 29.3 30.1 S | 186 1.6 3.0 - 60.0 12.7 0.00 0.00 30.2 36.5 6.0 8.0
1/28/23 - 0700 30.8 94 29.3 30.2 S | 191 1.6 3.0 - 60.0 12.5 0.00 0.00 30.3 36.5 6.0 7.0
1/28/23 - 0600 31.5 92 29.6 30.7 S | 184 1.1 3.3 - 60.0 12.6 0.00 0.00 30.8 36.5 6.0 6.0
1/28/23 - 0500 32.4 92 30.4 31.6 S | 182 1.2 4.1 - 60.0 12.6 0.00 0.00 31.7 36.5 6.0 5.0
1/28/23 - 0400 33.1 92 31.1 32.3 S | 188 1.7 4.2 - 60.0 12.6 0.00 0.00 32.3 36.5 6.0 4.0
1/28/23 - 0300 34.1 92 32.1 33.2 SSW | 196 1.8 6.0 - 60.0 12.6 0.00 0.00 33.3 36.5 6.0 3.0
1/28/23 - 0200 34.5 93 32.6 33.8 SSW | 212 1.7 3.7 - 60.0 12.6 0.00 0.00 33.7 36.5 3.7 2.0
1/28/23 - 0100 35.7 92 33.5 34.8 SSW | 196 1.4 3.7 - 60.0 12.7 0.00 0.00 34.6 36.5 3.7 1.0
1/28/23 - 0000 37.4 89 34.6 36.2 S | 185 1.5 5.3 - 45.2 12.7 0.00 0.00 30.8 68.6 16.9 9.1
1/27/23 - 2300 39.0 87 35.4 37.6 SSW | 194 1.3 4.7 - 0.0 12.7 0.00 0.00 30.8 68.6 16.9 8.4
1/27/23 - 2200 41.6 81 36.3 39.4 SSE | 168 0.9 4.3 - 0.0 12.7 0.00 0.00 30.8 68.6 16.9 8.4
1/27/23 - 2100 46.2 72 37.4 42.3 SW | 216 1.8 4.1 - 0.0 12.7 0.00 0.00 30.8 68.6 16.9 8.4
1/27/23 - 2000 54.2 53 37.7 46.4 NE | 52 4.0 12.9 - 0.0 12.8 0.00 0.00 30.8 68.6 16.9 8.4
1/27/23 - 1900 57.1 44 35.4 46.6 N | 6 3.1 9.4 - 0.0 12.8 0.00 0.00 30.8 68.6 16.9 8.4
1/27/23 - 1800 59.6 40 35.4 47.7 W | 271 5.2 13.4 - 0.0 12.9 0.00 0.00 30.8 68.6 16.9 8.4
1/27/23 - 1700 63.5 33 33.9 48.7 W | 263 5.8 15.2 - 0.0 13.1 0.00 0.00 30.8 68.6 16.9 8.4
1/27/23 - 1600 66.2 30 33.6 49.6 W | 260 6.4 16.9 - 0.0 13.2 0.00 0.00 30.8 68.6 16.9 8.4
1/27/23 - 1500 66.2 32 35.4 50.2 ENE | 70 2.3 12.2 - 0.0 13.2 0.00 0.00 30.8 68.6 12.7 8.4
1/27/23 - 1400 64.7 33 34.8 49.5 WNW | 290 3.0 12.7 - 0.0 13.2 0.00 0.00 30.8 66.2 12.7 8.4
1/27/23 - 1300 62.1 36 35.0 48.6 NNE | 18 3.4 7.2 - 0.0 13.2 0.00 0.00 30.8 63.6 8.0 8.4
1/27/23 - 1200 60.5 37 34.2 47.6 NNE | 16 3.3 8.0 - 0.0 13.3 0.00 0.00 30.8 62.0 8.0 8.4
1/27/23 - 1100 55.4 46 34.8 45.7 N | 359 1.7 5.5 - 0.0 13.4 0.00 0.00 30.8 59.1 5.5 8.4
1/27/23 - 1000 49.3 60 36.0 43.3 ENE | 65 0.7 4.9 - 13.5 13.5 0.00 0.00 30.8 53.6 4.9 8.4
1/27/23 - 0900 36.5 88 33.2 35.1 S | 180 0.9 3.6 - 60.0 13.7 0.00 0.00 30.8 42.3 3.6 8.2
1/27/23 - 0800 31.5 95 30.1 30.9 SSW | 200 1.1 3.2 - 60.0 12.7 0.00 0.00 30.8 37.6 3.3 7.1
1/27/23 - 0700 31.6 94 30.1 30.9 S | 174 1.3 3.2 - 60.0 12.6 0.00 0.00 31.0 37.6 3.3 6.1
1/27/23 - 0600 31.7 93 29.9 30.9 SW | 235 1.2 3.2 - 60.0 12.6 0.00 0.00 31.0 37.6 3.3 5.1
1/27/23 - 0500 33.0 92 31.0 32.2 SSE | 158 1.0 2.6 - 60.0 12.6 0.00 0.00 32.5 37.6 3.3 4.1
1/27/23 - 0400 33.8 92 31.7 33.0 S | 170 0.9 2.8 - 60.0 12.6 0.00 0.00 33.3 37.6 3.3 3.1
1/27/23 - 0300 34.8 90 32.2 33.7 S | 187 1.3 3.0 - 60.0 12.6 0.00 0.00 33.8 37.6 3.3 2.1
1/27/23 - 0200 35.5 89 32.6 34.3 S | 185 1.4 3.3 - 50.0 12.6 0.00 0.00 33.8 37.6 3.3 1.1
1/27/23 - 0100 36.5 88 33.2 35.2 SSW | 201 1.4 3.1 - 18.6 12.7 0.00 0.00 35.8 37.6 3.1 0.3
1/27/23 - 0000 38.2 84 33.7 36.4 S | 179 1.5 6.5 - 0.0 12.7 0.00 0.00 36.9 72.0 25.3 0.0
1/26/23 - 2300 38.9 83 34.1 36.9 S | 173 1.9 4.4 - 0.0 12.7 0.00 0.00 37.9 72.0 25.3 0.0
1/26/23 - 2200 39.9 80 34.3 37.6 S | 184 1.2 3.6 - 0.0 12.7 0.00 0.00 38.4 72.0 25.3 0.0
1/26/23 - 2100 41.8 73 33.8 38.5 SSW | 193 2.1 3.9 - 0.0 12.7 0.00 0.00 40.5 72.0 25.3 0.0
1/26/23 - 2000 43.4 69 33.8 39.3 SSW | 197 1.7 3.4 - 0.0 12.7 0.00 0.00 41.6 72.0 25.3 0.0
1/26/23 - 1900 45.4 67 34.9 40.9 SSW | 196 1.8 3.4 - 0.0 12.8 0.00 0.00 43.8 72.0 25.3 0.0
1/26/23 - 1800 49.3 62 37.0 43.7 SSW | 211 2.2 4.6 - 0.0 12.9 0.00 0.00 46.5 72.0 25.3 0.0
1/26/23 - 1700 58.8 46 37.7 48.2 SSW | 212 2.2 3.7 - 0.0 13.0 0.00 0.00 46.5 72.0 25.3 0.0
1/26/23 - 1600 70.5 23 30.2 50.2 SE | 146 1.0 4.6 - 0.0 13.1 0.00 0.00 46.5 72.0 25.3 0.0
1/26/23 - 1500 70.1 19 26.1 48.8 NE | 40 2.9 11.8 - 0.0 13.1 0.00 0.00 46.5 71.2 25.3 0.0
1/26/23 - 1400 68.9 20 26.0 48.3 NNE | 29 5.5 13.4 - 0.0 13.1 0.00 0.00 46.5 69.7 25.3 0.0
1/26/23 - 1300 67.9 22 27.1 48.2 NE | 43 6.0 13.4 - 0.0 13.1 0.00 0.00 46.5 69.2 25.3 0.0
1/26/23 - 1200 65.8 25 28.6 47.8 NE | 49 4.5 12.8 - 0.0 13.2 0.00 0.00 46.5 67.1 25.3 0.0
1/26/23 - 1100 62.8 27 28.4 46.6 NE | 38 5.6 14.9 - 0.0 13.3 0.00 0.00 46.5 64.2 25.3 0.0
1/26/23 - 1000 60.3 30 28.4 45.6 N | 8 4.9 12.1 - 0.0 13.3 0.00 0.00 46.5 61.9 25.3 0.0
1/26/23 - 0900 56.4 33 27.6 43.6 NNE | 19 5.2 15.9 - 0.0 13.4 0.00 0.00 46.5 59.3 25.3 0.0
1/26/23 - 0800 51.4 42 28.7 41.6 NE | 39 3.2 9.3 - 0.0 12.7 0.00 0.00 46.5 58.9 25.3 0.0
1/26/23 - 0700 55.5 33 26.9 43.0 NNW | 332 4.8 14.5 - 0.0 12.6 0.00 0.00 48.9 58.9 25.3 0.0
1/26/23 - 0600 55.9 33 27.3 43.3 N | 350 4.7 16.1 - 0.0 12.6 0.00 0.00 48.9 58.9 25.3 0.0
1/26/23 - 0500 57.1 31 27.0 43.8 NNE | 12 9.6 25.3 - 0.0 12.6 0.00 0.00 48.9 58.9 25.3 0.0
1/26/23 - 0400 57.0 31 26.8 43.7 NE | 34 6.3 22.6 - 0.0 12.6 0.00 0.00 48.9 58.9 23.0 0.0
1/26/23 - 0300 57.9 29 26.2 43.9 NNE | 33 7.7 23.0 - 0.0 12.6 0.00 0.00 48.9 58.9 23.0 0.0
1/26/23 - 0200 57.8 30 26.6 43.9 NNE | 26 9.0 19.8 - 0.0 12.7 0.00 0.00 48.9 58.5 19.8 0.0
1/26/23 - 0100 55.0 35 27.4 42.9 NE | 50 4.1 18.2 - 0.0 12.7 0.00 0.00 48.9 58.3 18.2 0.0
1/26/23 - 0000 55.9 33 26.8 43.2 ENE | 57 4.5 11.1 - 0.0 12.7 0.00 0.00 32.8 68.0 23.6 0.0
1/25/23 - 2300 58.3 29 26.4 44.1 NE | 49 5.3 18.4 - 0.0 12.7 0.00 0.00 32.8 68.0 23.6 0.0
1/25/23 - 2200 59.8 27 25.9 44.6 N | 9 6.9 20.6 - 0.0 12.7 0.00 0.00 32.8 68.0 23.6 0.0
1/25/23 - 2100 60.3 26 25.5 44.8 N | 9 5.5 18.5 - 0.0 12.7 0.00 0.00 32.8 68.0 23.6 0.0
1/25/23 - 2000 60.2 26 25.6 44.7 NNE | 24 4.3 20.1 - 0.0 12.8 0.00 0.00 32.8 68.0 23.6 0.0
1/25/23 - 1900 60.0 27 25.9 44.7 NE | 41 4.1 14.2 - 0.0 12.8 0.00 0.00 32.8 68.0 23.6 0.0
1/25/23 - 1800 61.0 26 25.8 45.1 NNE | 23 1.8 12.9 - 0.0 12.9 0.00 0.00 32.8 68.0 23.6 0.0
1/25/23 - 1700 64.9 22 24.9 46.4 NNE | 13 6.0 15.0 - 0.0 13.0 0.00 0.00 32.8 68.0 23.6 0.0
1/25/23 - 1600 67.3 21 26.4 47.8 NNE | 22 6.3 15.9 - 0.0 13.2 0.00 0.00 32.8 68.0 23.6 0.0
1/25/23 - 1500 67.1 21 26.0 47.6 N | 9 8.8 19.8 - 0.0 13.2 0.00 0.00 32.8 67.8 23.6 0.0
1/25/23 - 1400 67.1 21 26.1 47.7 NNE | 16 10.1 21.2 - 0.0 13.2 0.00 0.00 32.8 67.8 23.6 0.0
1/25/23 - 1300 66.9 21 25.5 47.4 NNE | 21 8.9 23.6 - 0.0 13.2 0.00 0.00 32.8 67.6 23.6 0.0
1/25/23 - 1200 65.4 21 24.4 46.5 NNE | 31 8.3 22.0 - 0.0 13.2 0.00 0.00 32.8 66.5 22.0 0.0
1/25/23 - 1100 62.9 23 24.7 45.6 NNE | 19 4.3 13.8 - 0.0 13.3 0.00 0.00 32.8 64.7 13.8 0.0
1/25/23 - 1000 54.7 43 32.1 44.4 SSE | 156 2.4 6.5 - 0.0 13.4 0.00 0.00 32.8 60.3 7.7 0.0
1/25/23 - 0900 39.9 73 31.8 36.6 SSE | 164 3.4 7.7 37.8 0.0 13.6 0.00 0.00 32.8 47.1 7.7 0.0
1/25/23 - 0800 33.6 88 30.5 32.4 S | 180 1.8 5.8 - 0.0 12.7 0.00 0.00 32.8 39.6 5.8 0.0
1/25/23 - 0700 34.3 86 30.5 32.8 S | 180 2.2 5.6 - 0.0 12.5 0.00 0.00 32.8 39.6 5.8 0.0
1/25/23 - 0600 34.8 85 30.8 33.2 SSW | 198 2.2 5.3 - 0.0 12.6 0.00 0.00 34.0 39.6 5.8 0.0
1/25/23 - 0500 36.1 82 31.0 34.1 S | 181 2.2 5.7 - 0.0 12.6 0.00 0.00 34.8 39.6 5.8 0.0
1/25/23 - 0400 36.8 81 31.4 34.6 S | 169 2.7 5.8 - 0.0 12.6 0.00 0.00 35.8 39.6 5.8 0.0
1/25/23 - 0300 36.9 81 31.7 34.8 SSW | 194 2.3 5.8 - 0.0 12.6 0.00 0.00 36.0 39.6 5.8 0.0
1/25/23 - 0200 37.3 81 32.0 35.2 S | 182 2.0 5.4 - 0.0 12.6 0.00 0.00 36.4 39.6 5.4 0.0
1/25/23 - 0100 38.6 77 32.1 36.0 S | 181 2.4 5.0 - 0.0 12.7 0.00 0.00 37.4 39.6 5.0 0.0
1/25/23 - 0000 39.4 76 32.4 36.5 S | 178 2.2 5.3 - 0.0 12.7 0.00 0.00 37.7 69.4 16.3 0.0
1/24/23 - 2300 39.6 77 32.9 36.8 S | 186 2.1 4.6 - 0.0 12.7 0.00 0.00 37.7 69.4 16.3 0.0
1/24/23 - 2200 40.4 75 33.3 37.5 S | 180 2.5 5.3 - 0.0 12.7 0.00 0.00 37.7 69.4 16.3 0.0
1/24/23 - 2100 43.1 69 33.5 39.0 S | 169 2.1 5.5 - 0.0 12.7 0.00 0.00 37.7 69.4 16.3 0.0
1/24/23 - 2000 44.4 67 34.0 40.0 S | 187 1.6 5.3 - 0.0 12.8 0.00 0.00 37.7 69.4 16.3 0.0
1/24/23 - 1900 47.4 59 33.8 41.5 S | 179 1.6 4.6 - 0.0 12.8 0.00 0.00 37.7 69.4 16.3 0.0
1/24/23 - 1800 51.6 52 34.3 43.7 SSW | 211 2.8 4.6 - 0.0 12.9 0.00 0.00 37.7 69.4 16.3 0.0
1/24/23 - 1700 64.0 27 27.8 47.0 N | 349 3.5 11.1 - 0.0 13.0 0.00 0.00 37.7 69.4 16.3 0.0
1/24/23 - 1600 68.4 18 23.2 47.4 NNE | 23 6.5 16.3 - 0.0 13.2 0.00 0.00 37.7 69.4 16.3 0.0
1/24/23 - 1500 68.8 15 19.0 46.6 NNE | 18 6.4 15.4 - 0.0 13.2 0.00 0.00 37.7 69.2 15.4 0.0
1/24/23 - 1400 68.4 14 17.4 46.2 NNE | 27 6.1 14.7 - 0.0 13.1 0.00 0.00 37.7 69.2 15.3 0.0
1/24/23 - 1300 68.1 14 16.7 45.9 NNE | 33 6.5 15.3 - 0.0 13.2 0.00 0.00 37.7 68.8 15.3 0.0
1/24/23 - 1200 66.9 15 18.2 45.7 NE | 56 3.4 10.8 - 0.0 13.2 0.00 0.00 37.7 68.0 10.8 0.0
1/24/23 - 1100 65.4 17 19.5 45.4 E | 94 1.3 6.5 - 0.0 13.3 0.00 0.00 37.7 67.1 8.7 0.0
1/24/23 - 1000 54.9 37 28.2 43.2 S | 171 2.2 5.0 - 0.0 13.4 0.00 0.00 37.7 63.6 8.7 0.0
1/24/23 - 0900 43.5 56 28.6 37.4 SSE | 164 3.0 7.5 - 0.0 13.6 0.00 0.00 37.7 54.8 8.7 0.0
1/24/23 - 0800 38.9 65 28.1 34.7 S | 172 3.0 7.1 - 0.0 12.7 0.00 0.00 37.7 54.8 8.7 0.0
1/24/23 - 0700 41.6 57 27.5 36.1 SSE | 158 3.2 6.8 - 0.0 12.6 0.00 0.00 39.8 54.8 8.7 0.0
1/24/23 - 0600 41.1 60 28.5 36.1 S | 176 3.9 7.3 38.7 0.0 12.6 0.00 0.00 40.0 54.8 8.7 0.0
1/24/23 - 0500 43.3 56 28.5 37.3 SSE | 164 3.1 7.2 - 0.0 12.6 0.00 0.00 41.2 54.8 8.7 0.0
1/24/23 - 0400 44.1 54 28.4 37.8 SE | 142 2.7 7.7 - 0.0 12.6 0.00 0.00 41.6 54.8 8.7 0.0
1/24/23 - 0300 45.6 52 28.7 38.7 SSE | 152 2.8 8.7 - 0.0 12.7 0.00 0.00 43.3 54.8 8.7 0.0
1/24/23 - 0200 45.6 53 29.4 38.9 S | 176 3.2 8.1 - 0.0 12.7 0.00 0.00 43.3 54.8 8.1 0.0
1/24/23 - 0100 47.8 46 27.9 39.6 S | 181 1.8 5.2 - 0.0 12.7 0.00 0.00 44.1 54.8 5.2 0.0
1/24/23 - 0000 55.6 28 23.4 42.1 ENE | 58 3.9 10.1 - 0.0 12.7 0.00 0.00 40.0 62.9 31.8 0.0
1/23/23 - 2300 56.8 26 22.2 42.3 NE | 36 5.9 18.1 - 0.0 12.7 0.00 0.00 40.0 62.9 31.8 0.0
1/23/23 - 2200 57.6 24 21.1 42.4 NNE | 16 9.0 21.8 - 0.0 12.7 0.00 0.00 40.0 62.9 31.8 0.0
1/23/23 - 2100 54.8 29 22.4 41.4 NNE | 15 5.8 17.9 - 0.0 12.8 0.00 0.00 40.0 62.9 31.8 0.0
1/23/23 - 2000 54.5 30 22.8 41.4 NNE | 31 3.7 11.1 - 0.0 12.8 0.00 0.00 40.0 62.9 31.8 0.0
1/23/23 - 1900 56.9 24 20.1 41.8 N | 351 4.4 15.7 - 0.0 12.8 0.00 0.00 40.0 62.9 31.8 0.0
1/23/23 - 1800 57.6 21 18.1 41.7 N | 352 6.0 15.4 - 0.0 12.9 0.00 0.00 40.0 62.9 31.8 0.0
1/23/23 - 1700 59.6 18 16.6 42.3 N | 8 6.5 25.1 - 0.0 13.1 0.00 0.00 40.0 62.9 31.8 0.0
1/23/23 - 1600 62.0 14 12.6 42.6 NNE | 15 7.7 20.2 - 0.0 13.3 0.00 0.00 40.0 62.9 31.8 0.0
1/23/23 - 1500 61.6 13 10.2 42.1 NNE | 19 7.6 22.4 - 0.0 13.2 0.00 0.00 40.0 62.9 31.8 0.0
1/23/23 - 1400 60.9 14 10.7 41.8 NNE | 14 7.7 18.6 - 0.0 13.2 0.00 0.00 40.0 62.0 31.8 0.0
1/23/23 - 1300 59.2 15 11.7 41.2 NNE | 17 8.8 27.3 - 0.0 13.3 0.00 0.00 40.0 60.9 31.8 0.0
1/23/23 - 1200 56.8 17 12.2 40.2 NNE | 13 11.5 27.0 - 0.0 13.4 0.00 0.00 40.0 58.4 31.8 0.0
1/23/23 - 1100 54.1 19 12.4 38.9 N | 10 10.4 26.5 - 0.0 13.4 0.00 0.00 40.0 55.4 31.8 0.0
1/23/23 - 1000 51.0 21 12.9 37.4 NNE | 15 10.1 31.8 - 0.0 13.4 0.00 0.00 40.0 52.9 31.8 0.0
1/23/23 - 0900 44.7 33 16.3 34.8 NE | 45 4.1 17.1 42.7 0.0 13.5 0.00 0.00 40.0 49.5 24.6 0.0
1/23/23 - 0800 45.1 29 14.4 34.6 NNE | 32 2.9 15.6 - 0.0 12.7 0.00 0.00 41.7 49.5 24.6 0.0
1/23/23 - 0700 46.3 26 13.3 35.0 NNE | 15 8.4 20.6 42.1 0.0 12.6 0.00 0.00 45.5 49.5 24.6 0.0
1/23/23 - 0600 46.9 25 13.0 35.3 NE | 47 6.0 15.6 44.0 0.0 12.6 0.00 0.00 45.8 49.5 24.6 0.0
1/23/23 - 0500 47.9 24 12.7 35.8 NE | 46 6.2 19.8 45.0 0.0 12.6 0.00 0.00 46.9 49.5 24.6 0.0
1/23/23 - 0400 48.1 25 13.5 36.0 NE | 37 6.5 21.0 45.1 0.0 12.7 0.00 0.00 47.2 49.5 24.6 0.0
1/23/23 - 0300 48.4 25 14.1 36.3 NNE | 26 7.8 21.0 44.9 0.0 12.7 0.00 0.00 47.7 49.5 24.6 0.0
1/23/23 - 0200 48.8 24 13.7 36.4 NE | 37 7.7 20.3 45.5 0.0 12.7 0.00 0.00 47.9 49.5 24.6 0.0
1/23/23 - 0100 48.7 24 13.6 36.3 NE | 38 7.9 24.6 45.2 0.0 12.7 0.00 0.00 47.9 49.5 24.6 0.0
1/23/23 - 0000 48.1 26 15.0 36.4 NE | 46 7.7 21.6 44.6 0.0 12.7 0.00 0.00 30.5 56.3 25.4 6.8
1/22/23 - 2300 48.3 27 16.0 36.6 NE | 38 9.9 25.4 43.9 0.0 12.7 0.00 0.00 30.5 56.3 25.4 6.8
1/22/23 - 2200 48.4 28 16.7 36.8 NE | 52 8.1 20.1 44.7 0.0 12.7 0.00 0.00 30.5 56.3 21.3 6.8
1/22/23 - 2100 44.0 42 21.1 35.6 E | 82 3.8 15.8 - 0.0 12.8 0.00 0.00 30.5 56.3 21.3 6.8
1/22/23 - 2000 40.6 55 25.4 34.9 SSW | 195 2.1 5.6 - 0.0 12.8 0.00 0.00 30.5 56.3 21.3 6.8
1/22/23 - 1900 42.3 50 24.9 35.6 SSW | 203 1.7 12.1 - 0.0 12.8 0.00 0.00 30.5 56.3 21.3 6.8
1/22/23 - 1800 49.2 28 17.3 37.4 N | 350 3.3 11.8 - 0.0 12.9 0.00 0.00 30.5 56.3 21.3 6.8
1/22/23 - 1700 52.5 20 13.0 38.2 N | 6 6.0 18.6 - 0.0 13.1 0.00 0.00 30.5 56.3 21.3 6.8
1/22/23 - 1600 55.0 18 12.5 39.4 NE | 36 8.4 19.0 - 0.0 13.4 0.00 0.00 30.5 56.3 21.3 6.8
1/22/23 - 1500 55.6 17 11.8 39.5 NE | 40 8.2 18.4 - 0.0 13.3 0.00 0.00 30.5 56.3 21.3 6.8
1/22/23 - 1400 55.4 18 12.0 39.5 NE | 43 8.3 21.3 - 0.0 13.3 0.00 0.00 30.5 55.8 21.3 6.8
1/22/23 - 1300 54.6 21 15.0 39.7 NE | 44 8.3 19.6 - 0.0 13.3 0.00 0.00 30.5 55.5 19.6 6.8
Max 70.5 100 37.7 50.2 - 11.5 31.8 45.5 60.0 13.7 0.00 0.00 48.9 72.0 31.8 12.5
Avg 49.0 51 27.4 39.8 - 4.0 11.2 42.8 11.3 12.9 0.00 - - - - -
Min 29.2 13 10.2 28.9 - 0.3 2.6 37.8 0.0 12.5 0.00 0.00 27.8 33.9 3.1 0.0
Total - - - - - - - - - - 0.00 - - - - -